Time;durP1;ratioP1;P1;durP2;ratioP2;P2;SDS_P1;SDS_P2;PMS_P1;PMS_P2;Temp;Humidity;BMP_temperature;BMP_pressure;BME280_temperature;BME280_humidity;BME280_pressure;Samples;Min_cycle;Max_cycle;Signal;HPM_P1;HPM_P2
2024/01/19 00:01:48;;;;;;;;;;;;;;;2.44;76.08;101301.56;7329027;19;19938;-69
2024/01/19 00:04:15;;;;;;;;;;;;;;;2.43;76.38;101294.72;7328849;19;20253;-68
2024/01/19 00:06:42;;;;;;;;;;;;;;;2.41;75.90;101296.56;7335556;19;20604;-70
2024/01/19 00:09:09;;;;;;;;;;;;;;;2.35;76.01;101295.16;7327389;19;20006;-70
2024/01/19 00:11:36;;;;;;;;;;;;;;;2.35;76.43;101292.56;7322000;19;20351;-70
2024/01/19 00:14:03;;;;;;;;;;;;;;;2.34;76.33;101290.03;7331793;19;19918;-68
2024/01/19 00:16:29;;;;;;;;;;;;;;;2.31;76.54;101292.81;7324541;19;20310;-69
2024/01/19 00:18:57;;;;;;;;;;;;;;;2.31;76.53;101303.22;7330761;19;20328;-71
2024/01/19 00:21:24;;;;;;;;;;;;;;;2.32;76.65;101302.28;7326401;19;20203;-70
2024/01/19 00:23:51;;;;;;;;;;;;;;;2.31;76.81;101308.41;7331387;19;20011;-68
2024/01/19 00:26:18;;;;;;;;;;;;;;;2.28;76.70;101314.63;7343445;19;20534;-68
2024/01/19 00:28:46;;;;;;;;;;;;;;;2.30;76.89;101309.31;7328608;19;19918;-71
2024/01/19 00:31:12;;;;;;;;;;;;;;;2.32;76.97;101321.31;7333047;19;19935;-69
2024/01/19 00:33:39;;;;;;;;;;;;;;;2.28;76.78;101314.63;7339747;19;19990;-71
2024/01/19 00:36:06;;;;;;;;;;;;;;;2.31;76.40;101313.59;7331509;19;19935;-70
2024/01/19 00:38:43;;;;;;;;;;;;;;;2.32;76.64;101313.50;7333977;19;20014;-70
2024/01/19 00:41:26;;;;;;;;;;;;;;;2.31;76.41;101317.03;7329241;19;20198;-69
2024/01/19 00:43:53;;;;;;;;;;;;;;;2.25;76.74;101316.53;7335591;19;19914;-69
2024/01/19 00:46:20;;;;;;;;;;;;;;;2.25;76.36;101322.56;7327324;19;19927;-70
2024/01/19 00:48:47;;;;;;;;;;;;;;;2.28;77.01;101324.16;7327364;19;20538;-71
2024/01/19 00:51:14;;;;;;;;;;;;;;;2.26;76.47;101328.59;7328801;19;19936;-69
2024/01/19 00:53:41;;;;;;;;;;;;;;;2.20;76.38;101340.16;7320297;19;19933;-68
2024/01/19 00:56:08;;;;;;;;;;;;;;;2.22;76.88;101335.72;7330280;19;19925;-69
2024/01/19 00:58:37;;;;;;;;;;;;;;;2.21;77.01;101338.41;7331763;19;20473;-70
2024/01/19 01:01:04;;;;;;;;;;;;;;;2.17;76.85;101335.16;7332611;19;20320;-69
2024/01/19 01:03:31;;;;;;;;;;;;;;;2.14;76.73;101338.75;7328731;19;19943;-71
2024/01/19 01:06:03;;;;;;;;;;;;;;;2.11;77.16;101331.13;7324391;19;20816;-68
2024/01/19 01:08:32;;;;;;;;;;;;;;;2.11;77.42;101338.91;7324498;19;20590;-69
2024/01/19 01:10:59;;;;;;;;;;;;;;;2.12;77.03;101342.34;7328520;19;19910;-70
2024/01/19 01:13:28;;;;;;;;;;;;;;;2.14;77.47;101345.69;7329634;19;19914;-69
2024/01/19 01:15:55;;;;;;;;;;;;;;;2.13;77.48;101344.84;7321081;19;19929;-69
2024/01/19 01:18:22;;;;;;;;;;;;;;;2.16;77.78;101343.84;7325347;19;20399;-69
2024/01/19 01:20:50;;;;;;;;;;;;;;;2.18;77.39;101343.78;7331952;19;20042;-69
2024/01/19 01:23:21;;;;;;;;;;;;;;;2.13;76.91;101352.63;7323951;19;19919;-69
2024/01/19 01:25:48;;;;;;;;;;;;;;;2.11;76.80;101346.72;7321600;19;19927;-68
2024/01/19 01:28:15;;;;;;;;;;;;;;;2.11;77.20;101354.50;7331208;19;21266;-68
2024/01/19 01:30:42;;;;;;;;;;;;;;;2.11;76.73;101361.44;7322446;19;19922;-69
2024/01/19 01:33:09;;;;;;;;;;;;;;;2.12;76.91;101361.38;7324287;19;21579;-68
2024/01/19 01:35:36;;;;;;;;;;;;;;;2.10;77.03;101359.75;7327785;19;19910;-71
2024/01/19 01:38:04;;;;;;;;;;;;;;;2.09;77.02;101363.28;7321312;19;21574;-68
2024/01/19 01:40:31;;;;;;;;;;;;;;;2.07;77.13;101365.13;7325037;19;19917;-69
2024/01/19 01:42:58;;;;;;;;;;;;;;;2.07;77.21;101362.53;7322880;19;20474;-72
2024/01/19 01:45:25;;;;;;;;;;;;;;;2.07;77.33;101365.13;7325329;19;19918;-71
2024/01/19 01:47:53;;;;;;;;;;;;;;;2.03;76.86;101368.81;7317019;19;19914;-69
2024/01/19 01:50:20;;;;;;;;;;;;;;;2.00;77.12;101368.97;7322037;19;20765;-69
2024/01/19 01:52:47;;;;;;;;;;;;;;;1.96;77.33;101359.69;7323621;19;20237;-70
2024/01/19 01:55:15;;;;;;;;;;;;;;;1.96;77.75;101373.50;7312831;19;19937;-67
2024/01/19 01:57:43;;;;;;;;;;;;;;;1.94;77.35;101366.72;7320747;19;20001;-69
2024/01/19 02:00:12;;;;;;;;;;;;;;;1.91;77.98;101372.09;7327579;19;19933;-70
2024/01/19 02:02:39;;;;;;;;;;;;;;;1.85;78.16;101380.19;7329077;19;19918;-69
2024/01/19 02:05:07;;;;;;;;;;;;;;;1.86;78.11;101384.47;7319715;19;19926;-68
2024/01/19 02:07:34;;;;;;;;;;;;;;;1.86;78.61;101400.03;7325916;19;20329;-68
2024/01/19 02:10:02;;;;;;;;;;;;;;;1.82;78.33;101407.16;7328493;19;20370;-70
2024/01/19 02:12:29;;;;;;;;;;;;;;;1.82;78.29;101396.78;7321993;19;20000;-68
2024/01/19 02:14:57;;;;;;;;;;;;;;;1.85;78.04;101398.34;7330323;19;20351;-70
2024/01/19 02:17:25;;;;;;;;;;;;;;;1.82;77.55;101394.19;7323488;19;19921;-71
2024/01/19 02:19:52;;;;;;;;;;;;;;;1.80;77.58;101395.16;7327923;19;20398;-69
2024/01/19 02:22:20;;;;;;;;;;;;;;;1.77;78.04;101400.53;7323010;19;19922;-69
2024/01/19 02:24:47;;;;;;;;;;;;;;;1.73;77.88;101400.69;7327914;19;20044;-70
2024/01/19 02:27:14;;;;;;;;;;;;;;;1.71;78.34;101399.94;7328889;19;19938;-69
2024/01/19 02:29:48;;;;;;;;;;;;;;;1.76;78.81;101393.66;7327970;19;20458;-69
2024/01/19 02:32:14;;;;;;;;;;;;;;;1.73;78.71;101400.69;7318154;19;20388;-69
2024/01/19 02:34:41;;;;;;;;;;;;;;;1.72;78.68;101400.78;7321391;19;19934;-69
2024/01/19 02:37:08;;;;;;;;;;;;;;;1.75;78.46;101410.97;7319170;19;20234;-70
2024/01/19 02:39:35;;;;;;;;;;;;;;;1.69;78.42;101414.72;7321054;19;19941;-67
2024/01/19 02:42:02;;;;;;;;;;;;;;;1.71;78.63;101417.25;7321042;19;20033;-70
2024/01/19 02:44:29;;;;;;;;;;;;;;;1.73;78.41;101422.38;7318023;19;19930;-70
2024/01/19 02:46:56;;;;;;;;;;;;;;;1.71;78.36;101420.69;7327039;19;20301;-69
2024/01/19 02:49:26;;;;;;;;;;;;;;;1.73;78.89;101420.59;7330363;19;19929;-70
2024/01/19 02:51:52;;;;;;;;;;;;;;;1.73;78.39;101425.78;7325361;19;19927;-70
2024/01/19 02:54:19;;;;;;;;;;;;;;;1.76;78.26;101424.78;7327532;19;19926;-70
2024/01/19 02:56:46;;;;;;;;;;;;;;;1.73;78.28;101424.00;7331797;19;19974;-69
2024/01/19 02:59:13;;;;;;;;;;;;;;;1.73;78.08;101419.78;7333088;19;19958;-70
2024/01/19 03:01:40;;;;;;;;;;;;;;;1.71;78.28;101432.81;7329332;19;19939;-70
2024/01/19 03:04:07;;;;;;;;;;;;;;;1.67;78.34;101433.91;7329505;19;19923;-70
2024/01/19 03:06:33;;;;;;;;;;;;;;;1.65;78.62;101430.53;7332849;19;20506;-70
2024/01/19 03:09:00;;;;;;;;;;;;;;;1.67;78.51;101449.47;7325037;19;19918;-70
2024/01/19 03:11:27;;;;;;;;;;;;;;;1.67;78.53;101437.34;7327862;19;19994;-68
2024/01/19 03:13:54;;;;;;;;;;;;;;;1.66;78.42;101448.63;7340879;19;19934;-69
2024/01/19 03:16:22;;;;;;;;;;;;;;;1.65;78.55;101452.13;7333375;19;20404;-70
2024/01/19 03:18:48;;;;;;;;;;;;;;;1.63;78.44;101460.88;7328400;19;19987;-70
2024/01/19 03:21:15;;;;;;;;;;;;;;;1.62;78.58;101456.63;7337386;19;19929;-69
2024/01/19 03:23:42;;;;;;;;;;;;;;;1.61;78.84;101450.63;7332985;19;19929;-70
2024/01/19 03:26:09;;;;;;;;;;;;;;;1.62;79.05;101456.63;7325923;19;19950;-68
2024/01/19 03:28:36;;;;;;;;;;;;;;;1.61;79.26;101462.75;7331643;19;20566;-68
2024/01/19 03:31:04;;;;;;;;;;;;;;;1.61;79.07;101452.38;7331318;19;20657;-70
2024/01/19 03:33:31;;;;;;;;;;;;;;;1.59;78.58;101451.59;7334186;19;20831;-69
2024/01/19 03:35:58;;;;;;;;;;;;;;;1.58;79.17;101452.50;7322115;19;19929;-69
2024/01/19 03:38:27;;;;;;;;;;;;;;;1.60;79.09;101461.06;7322393;19;19930;-68
2024/01/19 03:40:54;;;;;;;;;;;;;;;1.59;78.88;101456.78;7325801;19;19934;-71
2024/01/19 03:43:25;;;;;;;;;;;;;;;1.59;79.16;101460.22;7319773;19;19990;-69
2024/01/19 03:45:55;;;;;;;;;;;;;;;1.60;79.18;101461.91;7325147;19;19930;-69
2024/01/19 03:48:21;;;;;;;;;;;;;;;1.57;79.05;101466.41;7333520;19;19919;-69
2024/01/19 03:50:48;;;;;;;;;;;;;;;1.57;79.28;101469.00;7327353;19;19922;-69
2024/01/19 03:53:16;;;;;;;;;;;;;;;1.57;79.22;101467.25;7324154;19;19911;-70
2024/01/19 03:55:45;;;;;;;;;;;;;;;1.59;79.12;101468.00;7333059;19;19927;-68
2024/01/19 03:58:12;;;;;;;;;;;;;;;1.59;79.08;101477.53;7326202;19;19922;-69
2024/01/19 04:00:39;;;;;;;;;;;;;;;1.63;79.29;101479.03;7327339;19;19927;-69
2024/01/19 04:03:06;;;;;;;;;;;;;;;1.61;78.89;101481.72;7323117;19;20030;-68
2024/01/19 04:05:33;;;;;;;;;;;;;;;1.58;78.87;101478.44;7322019;19;19963;-70
2024/01/19 04:08:00;;;;;;;;;;;;;;;1.57;79.07;101481.97;7331797;19;19925;-70
2024/01/19 04:10:27;;;;;;;;;;;;;;;1.54;79.18;101480.34;7328622;19;19927;-69
2024/01/19 04:12:54;;;;;;;;;;;;;;;1.51;78.83;101475.34;7322246;19;19919;-70
2024/01/19 04:15:21;;;;;;;;;;;;;;;1.54;79.56;101476.91;7323321;19;19990;-68
2024/01/19 04:17:47;;;;;;;;;;;;;;;1.54;79.35;101497.66;7324324;19;19994;-69
2024/01/19 04:20:15;;;;;;;;;;;;;;;1.53;79.28;101494.22;7325965;19;20181;-68
2024/01/19 04:22:41;;;;;;;;;;;;;;;1.52;79.17;101499.50;7321000;19;19927;-69
2024/01/19 04:25:08;;;;;;;;;;;;;;;1.52;79.15;101494.34;7332940;19;19998;-69
2024/01/19 04:27:35;;;;;;;;;;;;;;;1.50;79.46;101515.13;7324248;19;21358;-69
2024/01/19 04:30:02;;;;;;;;;;;;;;;1.44;79.32;101510.25;7332023;19;19934;-68
2024/01/19 04:32:29;;;;;;;;;;;;;;;1.45;79.39;101506.75;7327893;19;19923;-69
2024/01/19 04:34:56;;;;;;;;;;;;;;;1.43;79.84;101505.97;7342961;19;19946;-69
2024/01/19 04:37:23;;;;;;;;;;;;;;;1.42;79.71;101506.94;7335985;19;19923;-69
2024/01/19 04:39:50;;;;;;;;;;;;;;;1.40;79.52;101515.69;7324889;19;19923;-71
2024/01/19 04:42:17;;;;;;;;;;;;;;;1.36;79.83;101512.41;7318332;19;19915;-69
2024/01/19 04:44:44;;;;;;;;;;;;;;;1.39;80.06;101511.41;7326611;19;19934;-70
2024/01/19 04:47:11;;;;;;;;;;;;;;;1.35;79.73;101515.91;7327738;19;19968;-69
2024/01/19 04:49:37;;;;;;;;;;;;;;;1.40;80.10;101513.09;7327281;19;20928;-69
2024/01/19 04:52:05;;;;;;;;;;;;;;;1.39;80.17;101522.63;7330499;19;20002;-69
2024/01/19 04:54:32;;;;;;;;;;;;;;;1.36;80.08;101517.59;7338536;19;19915;-68
2024/01/19 04:56:58;;;;;;;;;;;;;;;1.33;80.06;101520.31;7321200;19;19919;-69
2024/01/19 04:59:25;;;;;;;;;;;;;;;1.31;79.83;101521.31;7334770;19;19929;-68
2024/01/19 05:01:52;;;;;;;;;;;;;;;1.26;79.71;101524.16;7332332;19;20129;-70
2024/01/19 05:04:19;;;;;;;;;;;;;;;1.28;80.20;101530.91;7330786;19;20399;-70
2024/01/19 05:06:46;;;;;;;;;;;;;;;1.30;80.21;101528.25;7321698;19;19954;-70
2024/01/19 05:09:14;;;;;;;;;;;;;;;1.28;80.16;101530.06;7323693;19;19919;-71
2024/01/19 05:11:41;;;;;;;;;;;;;;;1.29;79.85;101524.81;7322035;19;20002;-69
2024/01/19 05:14:09;;;;;;;;;;;;;;;1.32;80.27;101528.19;7328025;19;20558;-72
2024/01/19 05:16:35;;;;;;;;;;;;;;;1.31;80.22;101527.34;7327017;19;20846;-68
2024/01/19 05:19:03;;;;;;;;;;;;;;;1.28;80.41;101530.91;7327949;19;21963;-68
2024/01/19 05:21:30;;;;;;;;;;;;;;;1.23;80.37;101525.13;7330559;19;20708;-70
2024/01/19 05:23:57;;;;;;;;;;;;;;;1.22;79.99;101522.59;7326593;19;21421;-69
2024/01/19 05:26:25;;;;;;;;;;;;;;;1.21;80.33;101524.38;7320454;19;19923;-69
2024/01/19 05:28:52;;;;;;;;;;;;;;;1.22;80.37;101530.38;7321999;19;21591;-69
2024/01/19 05:31:18;;;;;;;;;;;;;;;1.25;80.84;101532.84;7324431;19;19919;-68
2024/01/19 05:33:45;;;;;;;;;;;;;;;1.28;80.98;101530.06;7322091;19;20469;-68
2024/01/19 05:36:12;;;;;;;;;;;;;;;1.28;80.73;101530.91;7332085;19;20790;-69
2024/01/19 05:38:39;;;;;;;;;;;;;;;1.30;80.56;101536.03;7320746;19;20034;-70
2024/01/19 05:41:06;;;;;;;;;;;;;;;1.33;80.18;101540.22;7318088;19;20720;-69
2024/01/19 05:43:33;;;;;;;;;;;;;;;1.29;80.24;101542.97;7323306;19;19927;-69
2024/01/19 05:46:00;;;;;;;;;;;;;;;1.31;80.41;101548.09;7317337;19;19998;-68
2024/01/19 05:48:27;;;;;;;;;;;;;;;1.29;80.53;101565.44;7321843;19;20862;-68
2024/01/19 05:50:54;;;;;;;;;;;;;;;1.33;80.73;101560.94;7326939;19;20939;-69
2024/01/19 05:53:21;;;;;;;;;;;;;;;1.37;80.76;101552.97;7315326;19;19927;-69
2024/01/19 05:55:48;;;;;;;;;;;;;;;1.36;80.71;101566.84;7318322;19;20791;-68
2024/01/19 05:58:15;;;;;;;;;;;;;;;1.40;80.99;101560.59;7329813;19;19957;-72
2024/01/19 06:00:43;;;;;;;;;;;;;;;1.42;80.64;101558.75;7323336;19;20569;-69
2024/01/19 06:03:10;;;;;;;;;;;;;;;1.45;80.61;101563.78;7332312;19;19922;-69
2024/01/19 06:05:43;;;;;;;;;;;;;;;1.45;80.42;101573.31;7323107;19;19954;-68
2024/01/19 06:08:15;;;;;;;;;;;;;;;1.44;80.47;101577.66;7326342;19;19929;-69
2024/01/19 06:10:42;;;;;;;;;;;;;;;1.44;80.74;101579.41;7316763;19;19919;-70
2024/01/19 06:13:10;;;;;;;;;;;;;;;1.44;80.44;101584.59;7326711;19;19918;-69
2024/01/19 06:15:44;;;;;;;;;;;;;;;1.42;80.15;101594.22;7327622;19;20014;-69
2024/01/19 06:18:10;;;;;;;;;;;;;;;1.41;80.37;101597.72;7314842;19;20816;-71
2024/01/19 06:20:42;;;;;;;;;;;;;;;1.41;80.36;101605.50;7321454;19;20400;-70
2024/01/19 06:23:09;;;;;;;;;;;;;;;1.40;80.27;101604.66;7326335;19;19948;-70
2024/01/19 06:25:44;;;;;;;;;;;;;;;1.37;80.53;101602.22;7314221;19;20402;-69
2024/01/19 06:28:16;;;;;;;;;;;;;;;1.37;80.79;101604.81;7322036;19;19931;-69
2024/01/19 06:30:44;;;;;;;;;;;;;;;1.34;80.40;101617.91;7325325;19;19941;-70
2024/01/19 06:33:11;;;;;;;;;;;;;;;1.34;80.77;101612.72;7321877;19;19993;-70
2024/01/19 06:35:39;;;;;;;;;;;;;;;1.31;80.46;101612.88;7324450;19;19938;-70
2024/01/19 06:38:07;;;;;;;;;;;;;;;1.34;80.71;101617.91;7333101;19;19926;-70
2024/01/19 06:40:34;;;;;;;;;;;;;;;1.33;80.71;101621.41;7333936;19;19954;-70
2024/01/19 06:43:01;;;;;;;;;;;;;;;1.39;80.93;101626.28;7321467;19;19929;-69
2024/01/19 06:45:28;;;;;;;;;;;;;;;1.42;81.11;101627.91;7315040;19;19934;-69
2024/01/19 06:47:55;;;;;;;;;;;;;;;1.45;81.38;101625.16;7316848;19;19919;-70
2024/01/19 06:50:22;;;;;;;;;;;;;;;1.42;81.10;101639.13;7322905;19;19927;-70
2024/01/19 06:52:50;;;;;;;;;;;;;;;1.40;80.82;101635.75;7315281;19;20046;-69
2024/01/19 06:55:17;;;;;;;;;;;;;;;1.38;80.70;101641.91;7315259;19;19930;-67
2024/01/19 06:57:47;;;;;;;;;;;;;;;1.38;81.11;101642.75;7316177;19;19979;-69
2024/01/19 07:00:17;;;;;;;;;;;;;;;1.38;80.66;101644.50;7318816;19;19998;-71
2024/01/19 07:02:45;;;;;;;;;;;;;;;1.39;81.11;101641.84;7328167;19;20374;-70
2024/01/19 07:05:12;;;;;;;;;;;;;;;1.38;81.06;101653.13;7322335;19;20400;-67
2024/01/19 07:07:39;;;;;;;;;;;;;;;1.37;81.43;101658.41;7322473;19;19998;-68
2024/01/19 07:10:06;;;;;;;;;;;;;;;1.39;81.45;101653.97;7323435;19;19945;-68
2024/01/19 07:12:34;;;;;;;;;;;;;;;1.40;81.89;101655.66;7316473;19;20304;-68
2024/01/19 07:15:01;;;;;;;;;;;;;;;1.37;81.60;101661.84;7323869;19;19919;-69
2024/01/19 07:17:28;;;;;;;;;;;;;;;1.38;81.26;101662.66;7316396;19;20667;-68
2024/01/19 07:19:57;;;;;;;;;;;;;;;1.37;80.77;101666.16;7315933;19;20593;-68
2024/01/19 07:22:24;;;;;;;;;;;;;;;1.35;81.14;101663.66;7306690;19;19954;-69
2024/01/19 07:24:51;;;;;;;;;;;;;;;1.36;81.17;101667.06;7318272;19;19926;-70
2024/01/19 07:27:18;;;;;;;;;;;;;;;1.37;81.29;101679.13;7310481;19;19922;-69
2024/01/19 07:29:45;;;;;;;;;;;;;;;1.37;81.29;101677.38;7319511;19;20055;-67
2024/01/19 07:32:12;;;;;;;;;;;;;;;1.34;81.20;101680.09;7320780;19;20639;-70
2024/01/19 07:34:38;;;;;;;;;;;;;;;1.35;81.58;101679.19;7326483;19;21860;-68
2024/01/19 07:37:05;;;;;;;;;;;;;;;1.38;81.55;101683.38;7322701;19;19927;-70
2024/01/19 07:39:32;;;;;;;;;;;;;;;1.36;81.17;101683.47;7332675;19;19949;-69
2024/01/19 07:42:00;;;;;;;;;;;;;;;1.34;81.41;101689.63;7322310;19;19979;-68
2024/01/19 07:44:27;;;;;;;;;;;;;;;1.31;81.94;101690.63;7329373;19;19927;-69
2024/01/19 07:46:54;;;;;;;;;;;;;;;1.32;81.83;101692.31;7317130;19;20432;-68
2024/01/19 07:49:21;;;;;;;;;;;;;;;1.36;82.03;101698.19;7324888;19;19967;-67
2024/01/19 07:51:49;;;;;;;;;;;;;;;1.36;81.61;101696.44;7320233;19;19929;-71
2024/01/19 07:54:17;;;;;;;;;;;;;;;1.35;81.87;101701.69;7323857;19;19922;-70
2024/01/19 07:56:44;;;;;;;;;;;;;;;1.40;82.14;101704.91;7328630;19;19935;-69
2024/01/19 07:59:12;;;;;;;;;;;;;;;1.44;82.97;101709.00;7322731;19;20537;-70
2024/01/19 08:01:39;;;;;;;;;;;;;;;1.49;83.45;101709.63;7322444;19;19921;-69
2024/01/19 08:04:06;;;;;;;;;;;;;;;1.47;83.76;101706.28;7321506;19;20191;-68
2024/01/19 08:06:33;;;;;;;;;;;;;;;1.47;83.07;101704.53;7325218;19;20745;-68
2024/01/19 08:09:00;;;;;;;;;;;;;;;1.43;82.54;101708.16;7333984;19;19918;-70
2024/01/19 08:11:27;;;;;;;;;;;;;;;1.45;82.49;101706.34;7332432;19;19922;-68
2024/01/19 08:13:54;;;;;;;;;;;;;;;1.49;82.91;101709.63;7320877;19;19918;-68
2024/01/19 08:16:21;;;;;;;;;;;;;;;1.51;82.60;101705.22;7326578;19;19927;-68
2024/01/19 08:18:48;;;;;;;;;;;;;;;1.53;82.54;101700.78;7319070;19;20109;-68
2024/01/19 08:21:16;;;;;;;;;;;;;;;1.50;82.19;101711.31;7337586;19;19922;-69
2024/01/19 08:23:43;;;;;;;;;;;;;;;1.53;82.04;101712.00;7333386;19;19998;-68
2024/01/19 08:26:10;;;;;;;;;;;;;;;1.56;82.23;101713.63;7329621;19;19927;-70
2024/01/19 08:28:37;;;;;;;;;;;;;;;1.59;82.66;101718.66;7325965;19;19926;-69
2024/01/19 08:31:04;;;;;;;;;;;;;;;1.55;82.03;101730.94;7322182;19;19934;-70
2024/01/19 08:33:31;;;;;;;;;;;;;;;1.59;82.61;101729.03;7320543;19;19920;-68
2024/01/19 08:36:01;;;;;;;;;;;;;;;1.64;83.17;101732.25;7314413;19;19922;-70
2024/01/19 08:38:29;;;;;;;;;;;;;;;1.63;83.02;101733.16;7322257;19;21074;-69
2024/01/19 08:40:56;;;;;;;;;;;;;;;1.60;82.42;101728.97;7328508;19;19927;-67
2024/01/19 08:43:23;;;;;;;;;;;;;;;1.58;82.29;101730.78;7325673;19;21501;-69
2024/01/19 08:45:59;;;;;;;;;;;;;;;1.64;82.95;101732.25;7321981;19;20340;-69
2024/01/19 08:48:25;;;;;;;;;;;;;;;1.66;82.59;101725.25;7317997;19;20662;-69
2024/01/19 08:50:53;;;;;;;;;;;;;;;1.70;81.75;101730.19;7332465;19;19954;-68
2024/01/19 08:53:20;;;;;;;;;;;;;;;1.73;82.21;101725.78;7330281;19;20134;-69
2024/01/19 08:55:58;;;;;;;;;;;;;;;1.69;82.04;101727.66;7328049;19;19990;-68
2024/01/19 08:58:25;;;;;;;;;;;;;;;1.70;82.00;101729.34;7323879;19;19922;-70
2024/01/19 09:00:52;;;;;;;;;;;;;;;1.75;81.93;101731.72;7331334;19;21053;-70
2024/01/19 09:03:19;;;;;;;;;;;;;;;1.79;81.98;101746.22;7329618;19;19917;-68
2024/01/19 09:05:48;;;;;;;;;;;;;;;1.82;81.55;101752.13;7321871;19;19914;-68
2024/01/19 09:08:20;;;;;;;;;;;;;;;1.87;81.78;101744.97;7322031;19;20002;-70
2024/01/19 09:10:47;;;;;;;;;;;;;;;1.94;82.34;101745.47;7328831;19;19922;-68
2024/01/19 09:13:14;;;;;;;;;;;;;;;2.17;88.10;101740.00;7320229;19;21167;-69
2024/01/19 09:15:45;;;;;;;;;;;;;;;2.18;87.12;101743.44;7321326;19;21452;-68
2024/01/19 09:18:14;;;;;;;;;;;;;;;2.13;84.87;101751.47;7328040;19;19918;-67
2024/01/19 09:20:42;;;;;;;;;;;;;;;2.17;83.89;101753.00;7330695;19;19918;-69
2024/01/19 09:23:11;;;;;;;;;;;;;;;2.24;83.45;101759.53;7317540;19;19922;-69
2024/01/19 09:25:49;;;;;;;;;;;;;;;2.20;82.20;101755.41;7325397;19;19915;-70
2024/01/19 09:28:24;;;;;;;;;;;;;;;2.23;82.84;101759.63;7329823;19;19927;-69
2024/01/19 09:30:51;;;;;;;;;;;;;;;2.28;81.88;101761.09;7323330;19;19918;-68
2024/01/19 09:33:18;;;;;;;;;;;;;;;2.31;81.29;101770.47;7327889;19;19926;-70
2024/01/19 09:35:48;;;;;;;;;;;;;;;2.34;80.64;101770.28;7327393;19;19914;-68
2024/01/19 09:38:20;;;;;;;;;;;;;;;2.27;80.33;101771.53;7319636;19;19925;-70
2024/01/19 09:40:47;;;;;;;;;;;;;;;2.24;79.47;101766.47;7333281;19;20447;-71
2024/01/19 09:43:16;;;;;;;;;;;;;;;2.31;79.89;101767.88;7330345;19;19919;-70
2024/01/19 09:46:00;;;;;;;;;;;;;;;2.29;79.67;101765.34;7334489;19;19918;-69
2024/01/19 09:48:34;;;;;;;;;;;;;;;2.39;80.22;101769.16;7329113;19;20336;-70
2024/01/19 09:51:07;;;;;;;;;;;;;;;2.44;79.69;101776.72;7331264;19;20341;-68
2024/01/19 09:53:41;;;;;;;;;;;;;;;2.55;80.10;101790.00;7329820;19;20019;-68
2024/01/19 09:56:13;;;;;;;;;;;;;;;2.60;81.71;101795.78;7329059;19;20214;-68
2024/01/19 09:58:44;;;;;;;;;;;;;;;2.69;80.83;101804.91;7332406;19;20002;-68
2024/01/19 10:01:11;;;;;;;;;;;;;;;2.71;80.13;101806.50;7329831;19;19938;-69
2024/01/19 10:03:40;;;;;;;;;;;;;;;2.75;79.54;101822.75;7322903;19;21632;-69
2024/01/19 10:06:10;;;;;;;;;;;;;;;2.80;80.07;101818.16;7319095;19;20423;-69
2024/01/19 10:08:41;;;;;;;;;;;;;;;2.81;78.47;101825.03;7318227;19;21006;-69
2024/01/19 10:11:08;;;;;;;;;;;;;;;2.82;78.37;101824.97;7330656;19;19936;-68
2024/01/19 10:13:35;;;;;;;;;;;;;;;2.89;78.03;101822.91;7327002;19;19937;-69
2024/01/19 10:16:07;;;;;;;;;;;;;;;2.94;78.65;101819.16;7315026;19;19997;-69
2024/01/19 10:18:35;;;;;;;;;;;;;;;2.95;78.39;101823.41;7318819;19;19923;-69
2024/01/19 10:21:05;;;;;;;;;;;;;;;2.95;77.74;101830.38;7320710;19;19923;-68
2024/01/19 10:23:32;;;;;;;;;;;;;;;2.94;77.73;101834.75;7324260;19;20511;-68
2024/01/19 10:26:12;;;;;;;;;;;;;;;2.99;77.78;101835.34;7330773;19;19933;-69
2024/01/19 10:28:39;;;;;;;;;;;;;;;3.04;77.43;101827.31;7319119;19;21203;-70
2024/01/19 10:31:14;;;;;;;;;;;;;;;3.11;78.26;101828.66;7325358;19;19922;-68
2024/01/19 10:33:51;;;;;;;;;;;;;;;3.14;77.54;101828.50;7318748;19;20013;-69
2024/01/19 10:36:19;;;;;;;;;;;;;;;3.17;77.53;101833.53;7322345;19;20507;-67
2024/01/19 10:38:48;;;;;;;;;;;;;;;3.22;77.08;101833.28;7316349;19;19919;-71
2024/01/19 10:41:16;;;;;;;;;;;;;;;3.24;76.80;101826.25;7320137;19;19955;-69
2024/01/19 10:43:43;;;;;;;;;;;;;;;3.26;76.87;101827.00;7323958;19;20735;-72
2024/01/19 10:46:20;;;;;;;;;;;;;;;3.26;76.32;101827.00;7316383;19;20735;-70
2024/01/19 10:48:50;;;;;;;;;;;;;;;3.34;76.40;101824.84;7319618;19;20612;-70
2024/01/19 10:51:20;;;;;;;;;;;;;;;3.42;76.93;101826.13;7330423;19;19919;-69
2024/01/19 10:53:52;;;;;;;;;;;;;;;3.52;76.64;101826.47;7322413;19;19987;-69
2024/01/19 10:56:20;;;;;;;;;;;;;;;3.60;76.99;101819.09;7319893;19;19968;-70
2024/01/19 10:58:47;;;;;;;;;;;;;;;3.65;77.01;101829.25;7312890;19;19932;-69
2024/01/19 11:01:14;;;;;;;;;;;;;;;3.72;76.93;101830.56;7315537;19;19915;-70
2024/01/19 11:03:44;;;;;;;;;;;;;;;3.73;76.70;101829.66;7333200;19;19915;-70
2024/01/19 11:06:11;;;;;;;;;;;;;;;3.78;77.23;101832.84;7333809;19;19923;-70
2024/01/19 11:08:41;;;;;;;;;;;;;;;3.79;76.26;101831.94;7333153;19;19930;-68
2024/01/19 11:11:09;;;;;;;;;;;;;;;3.82;76.22;101832.59;7339458;19;20272;-68
2024/01/19 11:13:40;;;;;;;;;;;;;;;3.89;76.94;101830.50;7336532;19;19926;-69
2024/01/19 11:16:11;;;;;;;;;;;;;;;3.95;76.88;101834.53;7342588;19;20047;-69
2024/01/19 11:18:38;;;;;;;;;;;;;;;4.04;77.78;101831.41;7333014;19;20969;-69
2024/01/19 11:21:06;;;;;;;;;;;;;;;4.07;77.28;101826.84;7341237;19;19915;-69
2024/01/19 11:23:34;;;;;;;;;;;;;;;4.09;76.05;101829.38;7333621;19;19955;-69
2024/01/19 11:26:23;;;;;;;;;;;;;;;4.11;74.79;101820.56;7335724;19;19919;-70
2024/01/19 11:28:53;;;;;;;;;;;;;;;4.16;74.52;101813.34;7340000;19;20471;-70
2024/01/19 11:31:31;;;;;;;;;;;;;;;4.15;74.17;101813.41;7340692;19;20371;-68
2024/01/19 11:33:58;;;;;;;;;;;;;;;4.17;74.87;101817.59;7340100;19;19955;-68
2024/01/19 11:36:36;;;;;;;;;;;;;;;4.22;75.18;101804.31;7332525;19;19921;-68
2024/01/19 11:39:05;;;;;;;;;;;;;;;4.29;75.17;101805.66;7326132;19;19914;-68
2024/01/19 11:41:32;;;;;;;;;;;;;;;4.36;76.10;101806.97;7332256;19;19945;-70
2024/01/19 11:44:00;;;;;;;;;;;;;;;4.41;76.29;101807.56;7331730;19;20148;-69
2024/01/19 11:46:53;;;;;;;;;;;;;;;4.49;75.89;101804.47;7333981;19;19919;-69
2024/01/19 11:49:38;;;;;;;;;;;;;;;4.56;76.00;101808.44;7334893;19;19914;-67
2024/01/19 11:52:11;;;;;;;;;;;;;;;4.59;76.27;101808.22;7320465;19;20022;-69
2024/01/19 11:54:38;;;;;;;;;;;;;;;4.61;75.73;101802.00;7335058;19;19914;-67
2024/01/19 11:57:18;;;;;;;;;;;;;;;4.64;75.42;101796.59;7335668;19;19911;-69
2024/01/19 11:59:45;;;;;;;;;;;;;;;4.71;75.31;101797.94;7330209;19;19922;-68
2024/01/19 12:02:22;;;;;;;;;;;;;;;4.69;75.09;101789.34;7332718;19;19925;-68
2024/01/19 12:04:50;;;;;;;;;;;;;;;4.77;75.00;101785.47;7327849;19;21519;-68
2024/01/19 12:07:17;;;;;;;;;;;;;;;4.84;75.25;101794.56;7327440;19;21269;-69
2024/01/19 12:09:44;;;;;;;;;;;;;;;4.89;74.85;101798.59;7333390;19;19918;-69
2024/01/19 12:12:11;;;;;;;;;;;;;;;4.97;75.01;101788.56;7331079;19;19926;-68
2024/01/19 12:14:38;;;;;;;;;;;;;;;5.04;74.89;101795.06;7329745;19;20009;-68
2024/01/19 12:17:05;;;;;;;;;;;;;;;5.14;74.37;101797.94;7334664;19;20001;-68
2024/01/19 12:19:32;;;;;;;;;;;;;;;5.22;74.75;101781.84;7341575;19;19955;-67
2024/01/19 12:22:00;;;;;;;;;;;;;;;5.26;73.90;101788.53;7339874;19;20067;-68
2024/01/19 12:24:27;;;;;;;;;;;;;;;5.31;74.18;101784.69;7326393;19;19926;-68
2024/01/19 12:26:55;;;;;;;;;;;;;;;5.38;74.12;101778.19;7323232;19;20031;-67
2024/01/19 12:29:31;;;;;;;;;;;;;;;5.44;73.58;101776.94;7326795;19;19918;-69
2024/01/19 12:32:11;;;;;;;;;;;;;;;5.50;73.87;101777.41;7320722;19;19926;-69
2024/01/19 12:34:38;;;;;;;;;;;;;;;5.56;73.96;101777.00;7335171;19;19938;-67
2024/01/19 12:37:05;;;;;;;;;;;;;;;5.65;73.68;101779.97;7336550;19;20594;-68
2024/01/19 12:39:32;;;;;;;;;;;;;;;5.69;73.09;101771.03;7334074;19;19986;-69
2024/01/19 12:42:05;;;;;;;;;;;;;;;5.75;73.13;101773.22;7327396;19;20880;-67
2024/01/19 12:44:32;;;;;;;;;;;;;;;5.78;73.14;101779.09;7333787;19;19926;-68
2024/01/19 12:46:59;;;;;;;;;;;;;;;5.85;73.12;101784.75;7331989;19;19919;-70
2024/01/19 12:49:26;;;;;;;;;;;;;;;5.87;72.60;101781.16;7333544;19;20487;-68
2024/01/19 12:51:54;;;;;;;;;;;;;;;5.90;72.17;101786.16;7328723;19;19914;-68
2024/01/19 12:54:21;;;;;;;;;;;;;;;5.93;72.04;101777.31;7314857;19;19915;-68